Washburn, IA

7:49 PM CST on December 28, 2014 (GMT -0600)
Waterloo Municipal | Change Station
CLOSE
Current Station
Airport
Location: Waterloo,
Elevation: 873 ft
Nearby Weather Stations

Elev 873 ft 42.55 °N, 92.40 °W | Updated 55 minutes ago

Clear
Clear
25 °F
Feels Like 17 °F
N
7
Wind Variable Wind from NNE

Today
High -- | Low -- °F
--% Chance of Precip.
Yesterday
High -- | Low -- °F
Precip. -- in
7:38 AM 4:43 PM
First Quarter, 53% visible
Pressure 30.24 in
Visibility 10.0 miles
Clouds Clear
Windchill 17 °F
Dew Point 21 °F
Humidity 85%
Rainfall 0.00 in
Snow Depth Not available.
UV 0 out of 12
Pollen .10 out of 12
Air Quality Not available.
Flu Activity Not available.
METAR KALO 290054Z AUTO 02006KT 10SM CLR M04/M06 A3019 RMK AO2 SLP240 T10391061

More Conditions Fewer Conditions

Pressure 30.24 in
Visibility 10.0 miles
Clouds Clear
Windchill 17 °F
Dew Point 21 °F
Humidity 85%
Rainfall 0.00 in
Snow Depth Not available.
UV 0 out of 12
Pollen .10 out of 12
Air Quality Not available.
Flu Activity Not available.
METAR KALO 290054Z AUTO 02006KT 10SM CLR M04/M06 A3019 RMK AO2 SLP240 T10391061

More Conditions Fewer Conditions

10-Day Weather Forecast

Almanac

Astronomy

Dec. 28, 2014 Rise Set
Actual Time
Civil Twilight
Nautical Twilight
Astronomical Twilight
Moon
Length of Visible Light
Length of Day
Tomorrow will be .
, % of the Moon is Illuminated

Today's Extremes

State Highs State Lows

Community

WunderPhotos

Upload Photos

1,781,489 photos uploaded!

WunderBlogs® & News

Nearby

Air Quality

  Air Quality AQ Index Pollutant
Not available.

Snow Depth

Station Depth Elevation

Earthquake Activity

City Distance Mag. Time & Date
Minimum magnitude displayed is 2.5.

Coastal Water Temperatures

Place Temperature

Nearby Weather Stations